Terminal Aerodrome Forecast
Issued by NWS

Home | Current Version | Previous Version | Text Only | Print | Product List | Glossary On
Versions: 1 2 3 4 5 6 7 8 9 10 11 12 13 14 15 16
000
FTPA31 PHFO 171735
TAFHKO
TAF
PHKO 171735Z 1718/1818 06006KT P6SM FEW025 BKN060
     FM171900 24011KT P6SM FEW030 BKN060
     FM180400 18008KT P6SM FEW030 SCT060
     FM180800 08006KT P6SM FEW030 FEW060=

USA.gov is the U.S. government's official web portal to all federal, state and local government web resources and services.